createdAt,value
2018-12-25T00:00:22.799Z,2.3
2018-12-25T00:01:12.574Z,2.3
2018-12-25T00:02:02.922Z,2.3
2018-12-25T00:02:52.978Z,2.3
2018-12-25T00:03:42.469Z,2.3
2018-12-25T00:04:32.826Z,2.3
2018-12-25T00:05:23.400Z,2.3
2018-12-25T00:06:12.927Z,2.3
2018-12-25T00:07:03.502Z,2.3
2018-12-25T00:07:53.305Z,2.3
2018-12-25T00:08:43.372Z,2.3
2018-12-25T00:09:33.430Z,2.3
2018-12-25T00:10:23.469Z,2.3
2018-12-25T00:11:13.267Z,2.3
2018-12-25T00:12:03.702Z,2.2
2018-12-25T00:12:53.197Z,2.2
2018-12-25T00:13:43.696Z,2.2
2018-12-25T00:14:33.783Z,2.2
2018-12-25T00:32:43.171Z,1.9
2018-12-25T00:33:33.233Z,1.9
2018-12-25T00:34:23.007Z,1.9
2018-12-25T00:35:13.040Z,1.9
2018-12-25T00:36:03.104Z,1.9
2018-12-25T00:36:53.430Z,1.9
2018-12-25T00:37:43.575Z,1.9
2018-12-25T00:38:33.565Z,1.8
2018-12-25T00:39:23.082Z,1.8
2018-12-25T00:40:13.114Z,1.9
2018-12-25T00:41:03.454Z,1.8
2018-12-25T00:41:53.779Z,1.8
2018-12-25T00:42:44.084Z,1.8
2018-12-25T00:43:32.787Z,1.8
2018-12-25T00:44:23.682Z,1.8
2018-12-25T00:45:14.259Z,1.8
2018-12-25T00:46:04.064Z,1.8
2018-12-25T00:46:53.847Z,1.8
2018-12-25T00:47:44.169Z,1.8
2018-12-25T00:48:34.241Z,1.8
2018-12-25T00:49:24.289Z,1.8
2018-12-25T00:50:14.087Z,1.8
2018-12-25T00:51:04.131Z,1.8
2018-12-25T00:51:54.521Z,1.8
2018-12-25T00:52:44.526Z,1.8
2018-12-25T00:53:34.589Z,1.8
2018-12-25T00:54:24.628Z,1.8
2018-12-25T00:55:14.688Z,1.8
2018-12-25T00:56:04.469Z,1.8
2018-12-25T00:56:54.533Z,1.8
2018-12-25T00:57:44.858Z,1.8
2018-12-25T00:58:35.036Z,1.8
2018-12-25T00:59:24.725Z,1.8
2018-12-25T01:00:14.758Z,1.8
2018-12-25T01:01:04.822Z,1.8
2018-12-25T01:01:54.598Z,1.8
2018-12-25T01:02:44.930Z,1.8
2018-12-25T01:03:34.975Z,1.8
2018-12-25T01:04:25.058Z,1.8
2018-12-25T01:05:14.832Z,1.8
2018-12-25T01:06:05.168Z,1.7
2018-12-25T01:06:54.668Z,1.7
2018-12-25T01:07:45.626Z,1.7
2018-12-25T01:08:35.350Z,1.7
2018-12-25T01:09:25.399Z,1.7
2018-12-25T01:10:15.455Z,1.7
2018-12-25T01:11:06.158Z,1.7
2018-12-25T01:11:55.850Z,1.7
2018-12-25T01:12:45.895Z,1.8
2018-12-25T01:13:35.668Z,1.8
2018-12-25T01:14:25.755Z,1.7
2018-12-25T01:15:16.085Z,1.7
2018-12-25T01:16:05.945Z,1.8
2018-12-25T01:16:55.375Z,1.8
2018-12-25T01:17:46.247Z,1.7
2018-12-25T01:18:36.035Z,1.7
2018-12-25T01:19:26.324Z,1.6
2018-12-25T01:20:16.430Z,1.6
2018-12-25T01:21:06.195Z,1.6
2018-12-25T01:21:55.987Z,1.6
2018-12-25T01:22:46.316Z,1.5
2018-12-25T01:23:36.375Z,1.4
2018-12-25T01:24:26.455Z,1.5
2018-12-25T01:25:16.796Z,1.4
2018-12-25T01:26:06.825Z,1.4
2018-12-25T01:26:56.872Z,1.4
2018-12-25T01:27:46.946Z,1.4
2018-12-25T01:28:36.992Z,1.4
2018-12-25T01:29:27.125Z,1.4
2018-12-25T01:30:17.110Z,1.4
2018-12-25T01:31:07.244Z,1.3
2018-12-25T01:31:56.964Z,1.4
2018-12-25T01:32:47.289Z,1.3
2018-12-25T01:33:37.341Z,1.3
2018-12-25T01:34:27.433Z,1.3
2018-12-25T01:35:17.171Z,1.3
2018-12-25T01:36:07.247Z,1.3
2018-12-25T01:36:57.293Z,1.3
2018-12-25T01:37:46.798Z,1.3
2018-12-25T01:38:37.508Z,1.3
2018-12-25T01:39:27.211Z,1.3
2018-12-25T01:40:17.217Z,1.3
2018-12-25T01:41:07.926Z,1.3
2018-12-25T01:41:57.916Z,1.3
2018-12-25T01:42:47.681Z,1.3
2018-12-25T01:43:38.023Z,1.4
2018-12-25T01:44:27.541Z,1.3
2018-12-25T01:45:18.136Z,1.3
2018-12-25T01:46:07.918Z,1.3
2018-12-25T01:46:57.700Z,1.3
2018-12-25T01:47:48.041Z,1.3
2018-12-25T01:48:38.371Z,1.3
2018-12-25T01:49:34.625Z,1.3
2018-12-25T01:50:18.466Z,1.2
2018-12-25T01:51:08.328Z,1.2
2018-12-25T01:51:58.597Z,1.2
2018-12-25T01:52:48.658Z,1.2
2018-12-25T01:53:38.148Z,1.2
2018-12-25T01:54:28.776Z,1.2
2018-12-25T01:55:18.877Z,1.1
2018-12-25T01:56:08.604Z,1.2
2018-12-25T01:56:59.066Z,1.1
2018-12-25T01:57:48.712Z,1.1
2018-12-25T01:58:38.497Z,1.1
2018-12-25T01:59:28.567Z,1.1
2018-12-25T02:00:19.719Z,1.1
2018-12-25T02:01:08.956Z,1.1
2018-12-25T02:01:59.587Z,1.1
2018-12-25T02:02:49.064Z,1.1
2018-12-25T02:03:39.395Z,1.1
2018-12-25T02:04:29.191Z,1.1
2018-12-25T02:05:19.242Z,1.1
2018-12-25T02:06:09.596Z,1
2018-12-25T02:06:59.354Z,1
2018-12-25T02:07:49.399Z,1
2018-12-25T02:08:39.751Z,1.1
2018-12-25T02:09:29.799Z,1.1
2018-12-25T02:10:19.584Z,1.1
2018-12-25T02:11:09.924Z,1.1
2018-12-25T02:11:59.984Z,1.1
2018-12-25T02:12:50.040Z,1.1
2018-12-25T02:13:40.093Z,1.1
2018-12-25T02:14:29.609Z,1.1
2018-12-25T02:15:19.923Z,1.1
2018-12-25T02:16:09.956Z,1.1
2018-12-25T02:17:00.001Z,1.1
2018-12-25T02:17:50.098Z,1.1
2018-12-25T02:18:40.150Z,1.1
2018-12-25T02:19:29.641Z,1.1
2018-12-25T02:20:20.538Z,1.1
2018-12-25T02:21:10.328Z,1.1
2018-12-25T02:22:00.384Z,1.1
2018-12-25T02:22:50.740Z,1.1
2018-12-25T02:23:40.795Z,1.1
2018-12-25T02:24:30.563Z,1.1
2018-12-25T02:25:20.978Z,1.1
2018-12-25T02:26:10.936Z,1.1
2018-12-25T02:27:00.998Z,1.1
2018-12-25T02:27:51.065Z,1
2018-12-25T02:28:40.851Z,1
2018-12-25T02:29:30.902Z,1
2018-12-25T02:30:21.291Z,1.1
2018-12-25T02:31:11.034Z,1
2018-12-25T02:32:00.533Z,1.1
2018-12-25T02:32:51.413Z,1
2018-12-25T02:33:41.200Z,1
2018-12-25T02:34:31.558Z,1
2018-12-25T02:35:21.349Z,1
2018-12-25T02:36:11.706Z,1
2018-12-25T02:37:01.157Z,1
2018-12-25T02:37:51.503Z,0.9
2018-12-25T02:38:41.552Z,0.9
2018-12-25T02:39:31.890Z,0.9
2018-12-25T02:40:21.420Z,0.9
2018-12-25T02:41:12.093Z,0.9
2018-12-25T02:42:01.502Z,0.9
2018-12-25T02:42:51.585Z,0.9
2018-12-25T02:43:41.625Z,0.9
2018-12-25T02:44:32.248Z,0.8
2018-12-25T02:45:21.994Z,0.8
2018-12-25T02:46:12.408Z,0.8
2018-12-25T02:47:02.445Z,0.8
2018-12-25T02:47:51.922Z,0.8
2018-12-25T02:48:42.240Z,0.8
2018-12-25T02:49:32.046Z,0.8
2018-12-25T02:50:22.530Z,0.8
2018-12-25T02:51:12.687Z,0.8
2018-12-25T02:52:02.470Z,0.8
2018-12-25T02:52:52.274Z,0.8
2018-12-25T02:53:42.573Z,0.8
2018-12-25T02:54:32.706Z,0.8
2018-12-25T02:55:22.986Z,0.8
2018-12-25T02:56:12.514Z,0.8
2018-12-25T02:57:03.397Z,0.8
2018-12-25T02:57:53.174Z,0.8
2018-12-25T02:58:42.912Z,0.8
2018-12-25T02:59:32.988Z,0.8
2018-12-25T03:00:22.812Z,0.7
2018-12-25T03:01:12.829Z,0.7
2018-12-25T03:02:02.740Z,0.8
2018-12-25T03:02:53.496Z,0.7
2018-12-25T03:03:43.700Z,0.7
2018-12-25T03:04:33.613Z,0.7
2018-12-25T03:05:23.469Z,0.7
2018-12-25T03:06:13.152Z,0.7
2018-12-25T03:07:03.791Z,0.7
2018-12-25T03:07:53.272Z,0.7
2018-12-25T03:08:43.862Z,0.6
2018-12-25T03:09:33.963Z,0.6
2018-12-25T03:10:23.994Z,0.6
2018-12-25T03:11:13.806Z,0.7
2018-12-25T03:12:04.143Z,0.6
2018-12-25T03:12:54.172Z,0.6
2018-12-25T03:13:44.129Z,0.6
2018-12-25T03:14:34.354Z,0.6
2018-12-25T03:15:24.398Z,0.6
2018-12-25T03:16:14.470Z,0.7
2018-12-25T03:17:04.193Z,0.6
2018-12-25T03:17:54.543Z,0.6
2018-12-25T03:18:44.051Z,0.6
2018-12-25T03:19:34.332Z,0.6
2018-12-25T03:20:24.150Z,0.6
2018-12-25T03:21:14.762Z,0.6
2018-12-25T03:22:04.247Z,0.7
2018-12-25T03:22:54.607Z,0.7
2018-12-25T03:23:44.653Z,0.7
2018-12-25T03:24:35.003Z,0.7
2018-12-25T03:25:25.169Z,0.7
2018-12-25T03:26:15.107Z,0.6
2018-12-25T03:27:05.166Z,0.7
2018-12-25T03:27:55.287Z,0.6
2018-12-25T03:28:45.530Z,0.6
2018-12-25T03:29:35.124Z,0.6
2018-12-25T03:30:25.227Z,0.6
2018-12-25T03:31:15.545Z,0.6
2018-12-25T03:32:05.935Z,0.6
2018-12-25T03:32:55.468Z,0.6
2018-12-25T03:33:45.601Z,0.6
2018-12-25T03:34:35.415Z,0.6
2018-12-25T03:35:25.513Z,0.6
2018-12-25T03:36:14.964Z,0.6
2018-12-25T03:37:05.294Z,0.6
2018-12-25T03:37:55.631Z,0.6
2018-12-25T03:38:45.804Z,0.6
2018-12-25T03:39:36.299Z,0.6
2018-12-25T03:40:26.067Z,0.5
2018-12-25T03:41:15.857Z,0.5
2018-12-25T03:42:05.996Z,0.5
2018-12-25T03:42:55.975Z,0.5
2018-12-25T03:43:45.749Z,0.5
2018-12-25T03:44:36.474Z,0.5
2018-12-25T03:45:25.593Z,0.5
2018-12-25T03:46:15.952Z,0.5
2018-12-25T03:47:06.249Z,0.5
2018-12-25T03:47:56.898Z,0.6
2018-12-25T03:48:46.359Z,0.5
2018-12-25T03:49:36.436Z,0.5
2018-12-25T03:50:26.768Z,0.5
2018-12-25T03:51:16.818Z,0.5
2018-12-25T03:52:06.635Z,0.5
2018-12-25T03:52:56.921Z,0.5
2018-12-25T03:53:46.775Z,0.6
2018-12-25T03:54:37.049Z,0.5
2018-12-25T03:55:27.083Z,0.5
2018-12-25T03:56:16.368Z,0.5
2018-12-25T03:57:06.944Z,0.4
2018-12-25T03:57:57.033Z,0.4
2018-12-25T03:58:47.328Z,0.4
2018-12-25T03:59:37.405Z,0.4
2018-12-25T04:00:26.923Z,0.4
2018-12-25T04:01:16.675Z,0.4
2018-12-25T04:02:07.325Z,0.4
2018-12-25T04:02:57.616Z,0.4
2018-12-25T04:03:47.418Z,0.3
2018-12-25T04:04:37.739Z,0.4
2018-12-25T04:05:27.805Z,0.3
2018-12-25T04:06:17.405Z,0.3
2018-12-25T04:07:07.955Z,0.3
2018-12-25T04:07:57.972Z,0.3
2018-12-25T04:08:47.772Z,0.3
2018-12-25T04:09:38.118Z,0.3
2018-12-25T04:10:28.166Z,0.3
2018-12-25T04:11:17.980Z,0.3
2018-12-25T04:12:07.708Z,0.3
2018-12-25T04:12:58.062Z,0.3
2018-12-25T04:13:48.472Z,0.2
2018-12-25T04:14:38.413Z,0.2
2018-12-25T04:15:28.220Z,0.2
2018-12-25T04:16:18.571Z,0.2
2018-12-25T04:17:08.324Z,0.2
2018-12-25T04:17:58.379Z,0.1
2018-12-25T04:18:48.682Z,0.1
2018-12-25T04:19:38.211Z,0.1
2018-12-25T04:20:28.847Z,0.1
2018-12-25T04:21:19.031Z,0.1
2018-12-25T04:22:08.671Z,0.1
2018-12-25T04:22:58.995Z,0.1
2018-12-25T04:23:49.348Z,0.1
2018-12-25T04:24:38.849Z,0.1
2018-12-25T04:25:28.950Z,0.1
2018-12-25T04:26:18.683Z,0.1
2018-12-25T04:27:09.013Z,0.1
2018-12-25T04:27:59.331Z,0.1
2018-12-25T04:28:49.108Z,0.1
2018-12-25T04:29:39.458Z,0.1
2018-12-25T04:30:29.506Z,0.1
2018-12-25T04:31:19.193Z,0.1
2018-12-25T04:32:09.348Z,0.1
2018-12-25T04:32:59.395Z,0.1
2018-12-25T04:33:49.453Z,0.1
2018-12-25T04:34:39.517Z,0.1
2018-12-25T04:35:29.854Z,0
2018-12-25T04:36:19.895Z,0
2018-12-25T04:37:09.961Z,-0.1
2018-12-25T04:37:59.743Z,0
2018-12-25T04:38:50.085Z,-0.1
2018-12-25T04:39:39.879Z,-0.1
2018-12-25T04:40:30.430Z,-0.1
2018-12-25T04:41:20.275Z,-0.1
2018-12-25T04:42:09.771Z,-0.1
2018-12-25T04:43:00.394Z,-0.1
2018-12-25T04:43:50.175Z,-0.1
2018-12-25T04:44:40.468Z,-0.1
2018-12-25T05:01:56.613Z,-0.1
2018-12-25T05:02:46.141Z,-0.1
2018-12-25T05:03:36.471Z,0
2018-12-25T05:04:26.523Z,-0.1
2018-12-25T05:05:16.279Z,-0.1
2018-12-25T05:06:06.348Z,-0.1
2018-12-25T05:06:57.344Z,-0.1
2018-12-25T05:07:46.746Z,-0.1
2018-12-25T05:08:36.524Z,-0.1
2018-12-25T05:09:26.813Z,-0.1
2018-12-25T05:10:17.048Z,-0.1
2018-12-25T05:11:06.713Z,-0.1
2018-12-25T05:11:56.775Z,-0.1
2018-12-25T05:12:47.102Z,-0.1
2018-12-25T05:13:37.130Z,-0.1
2018-12-25T05:14:27.163Z,-0.1
2018-12-25T05:15:16.963Z,-0.1
2018-12-25T05:16:07.308Z,-0.1
2018-12-25T05:16:57.356Z,-0.1
2018-12-25T05:17:47.657Z,-0.1
2018-12-25T05:18:37.203Z,-0.1
2018-12-25T05:19:27.280Z,-0.1
2018-12-25T05:20:17.309Z,-0.1
2018-12-25T05:21:07.082Z,-0.1
2018-12-25T05:21:58.010Z,-0.1
2018-12-25T05:22:47.500Z,-0.1
2018-12-25T05:23:37.536Z,-0.1
2018-12-25T05:24:27.588Z,-0.1
2018-12-25T05:25:17.937Z,-0.1
2018-12-25T05:26:07.715Z,-0.1
2018-12-25T05:26:57.488Z,-0.1
2018-12-25T05:27:48.067Z,-0.2
2018-12-25T05:28:37.884Z,-0.2
2018-12-25T05:29:27.662Z,-0.3
2018-12-25T05:30:17.412Z,-0.2
2018-12-25T05:31:08.074Z,-0.2
2018-12-25T05:31:57.562Z,-0.2
2018-12-25T05:32:48.179Z,-0.2
2018-12-25T05:33:38.265Z,-0.3
2018-12-25T05:34:28.579Z,-0.2
2018-12-25T05:35:18.361Z,-0.3
2018-12-25T05:36:08.686Z,-0.3
2018-12-25T05:36:58.482Z,-0.3
2018-12-25T05:37:48.539Z,-0.3
2018-12-25T05:38:38.956Z,-0.3
2018-12-25T05:39:28.432Z,-0.3
2018-12-25T05:40:18.591Z,-0.3
2018-12-25T05:41:08.264Z,-0.3
2018-12-25T05:41:58.334Z,-0.4
2018-12-25T05:42:48.659Z,-0.4
2018-12-25T05:43:38.889Z,-0.4
2018-12-25T05:44:28.976Z,-0.4
2018-12-25T05:45:19.633Z,-0.4
2018-12-25T05:46:09.086Z,-0.4
2018-12-25T05:46:59.429Z,-0.4
2018-12-25T05:47:49.214Z,-0.4
2018-12-25T05:48:39.258Z,-0.4
2018-12-25T05:49:29.328Z,-0.4
2018-12-25T05:50:19.644Z,-0.4
2018-12-25T05:51:09.433Z,-0.4
2018-12-25T05:51:59.488Z,-0.5
2018-12-25T05:52:49.541Z,-0.5
2018-12-25T05:53:39.888Z,-0.4
2018-12-25T05:54:29.375Z,-0.4
2018-12-25T05:55:21.942Z,-0.5
2018-12-25T05:56:10.048Z,-0.5
2018-12-25T05:57:00.110Z,-0.5
2018-12-25T05:57:49.679Z,-0.5
2018-12-25T05:58:40.213Z,-0.5
2018-12-25T05:59:29.530Z,-0.5
2018-12-25T06:00:19.858Z,-0.6
2018-12-25T06:01:09.650Z,-0.5
2018-12-25T06:01:59.423Z,-0.5
2018-12-25T06:02:49.483Z,-0.5
2018-12-25T06:03:40.150Z,-0.5
2018-12-25T06:04:30.147Z,-0.5
2018-12-25T06:05:19.643Z,-0.4
2018-12-25T06:06:09.147Z,-0.4
2018-12-25T06:06:59.827Z,-0.4
2018-12-25T06:07:50.445Z,-0.4
2018-12-25T06:08:40.439Z,-0.4
2018-12-25T06:09:30.529Z,-0.4
2018-12-25T06:10:20.548Z,-0.4
2018-12-25T06:11:10.600Z,-0.4
2018-12-25T06:12:00.377Z,-0.4
2018-12-25T06:12:50.441Z,-0.4
2018-12-25T06:13:40.781Z,-0.4
2018-12-25T06:14:30.831Z,-0.4
2018-12-25T06:15:21.356Z,-0.4
2018-12-25T06:16:11.200Z,-0.4
2018-12-25T06:17:01.199Z,-0.3
2018-12-25T06:17:50.981Z,-0.4
2018-12-25T06:18:41.641Z,-0.4
2018-12-25T06:19:31.096Z,-0.4
2018-12-25T06:20:21.434Z,-0.4
2018-12-25T06:21:11.284Z,-0.4
2018-12-25T06:22:01.264Z,-0.4
2018-12-25T06:22:51.863Z,-0.4
2018-12-25T06:23:41.651Z,-0.4
2018-12-25T06:24:31.984Z,-0.4
2018-12-25T06:25:22.127Z,-0.4
2018-12-25T06:26:11.824Z,-0.3
2018-12-25T06:27:02.194Z,-0.4
2018-12-25T06:27:52.219Z,-0.4
2018-12-25T06:28:42.033Z,-0.3
2018-12-25T06:29:32.336Z,-0.4
2018-12-25T06:30:22.403Z,-0.3
2018-12-25T06:31:12.168Z,-0.3
2018-12-25T06:32:01.755Z,-0.3
2018-12-25T06:32:51.258Z,-0.3
2018-12-25T06:33:42.333Z,-0.3
2018-12-25T06:34:32.684Z,-0.3
2018-12-25T06:35:22.738Z,-0.3
2018-12-25T06:36:12.560Z,-0.3
2018-12-25T06:37:02.850Z,-0.3
2018-12-25T06:37:51.398Z,-0.3
2018-12-25T06:38:42.455Z,-0.3
2018-12-25T06:39:32.505Z,-0.3
2018-12-25T06:40:22.320Z,-0.3
2018-12-25T06:41:12.854Z,-0.3
2018-12-25T06:42:03.200Z,-0.3
2018-12-25T06:42:53.245Z,-0.3
2018-12-25T06:43:43.603Z,-0.3
2018-12-25T06:44:33.355Z,-0.3
2018-12-25T06:45:23.137Z,-0.3
2018-12-25T06:46:13.718Z,-0.3
2018-12-25T06:47:03.537Z,-0.3
2018-12-25T06:47:53.680Z,-0.2
2018-12-25T06:48:43.617Z,-0.2
2018-12-25T06:49:32.943Z,-0.2
2018-12-25T06:50:23.210Z,-0.2
2018-12-25T06:51:13.777Z,-0.2
2018-12-25T06:52:03.389Z,-0.2
2018-12-25T06:52:53.187Z,-0.2
2018-12-25T06:53:43.709Z,-0.2
2018-12-25T06:54:34.054Z,-0.2
2018-12-25T06:55:23.624Z,-0.1
2018-12-25T06:56:13.139Z,-0.2
2018-12-25T06:57:03.736Z,-0.1
2018-12-25T06:57:53.799Z,-0.1
2018-12-25T06:58:43.855Z,-0.1
2018-12-25T06:59:33.914Z,-0.1
2018-12-25T07:00:23.696Z,-0.1
2018-12-25T07:01:14.026Z,-0.1
2018-12-25T07:02:03.549Z,-0.1
2018-12-25T07:02:53.865Z,-0.1
2018-12-25T07:03:43.459Z,-0.1
2018-12-25T07:04:34.241Z,-0.1
2018-12-25T07:05:24.285Z,-0.1
2018-12-25T07:06:13.249Z,-0.1
2018-12-25T07:07:04.611Z,-0.1
2018-12-25T07:07:54.492Z,-0.1
2018-12-25T07:08:44.557Z,-0.1
2018-12-25T07:09:35.062Z,-0.1
2018-12-25T07:10:25.143Z,-0.2
2018-12-25T07:11:14.705Z,-0.2
2018-12-25T07:12:04.766Z,-0.2
2018-12-25T07:12:54.830Z,-0.2
2018-12-25T07:13:45.351Z,-0.2
2018-12-25T07:14:34.670Z,-0.2
2018-12-25T07:15:34.065Z,-0.2
2018-12-25T07:16:15.530Z,-0.1
2018-12-25T07:17:05.587Z,-0.1
2018-12-25T07:17:55.648Z,-0.1
2018-12-25T07:18:45.432Z,-0.1
2018-12-25T07:19:35.594Z,-0.1
2018-12-25T07:20:25.813Z,-0.1
2018-12-25T07:21:15.614Z,-0.1
2018-12-25T07:22:05.419Z,-0.1
2018-12-25T07:22:55.489Z,0
2018-12-25T07:23:45.624Z,0
2018-12-25T07:24:36.072Z,0.1
2018-12-25T07:25:26.159Z,0.1
2018-12-25T07:26:16.174Z,0.1
2018-12-25T07:27:06.241Z,0.1
2018-12-25T07:27:56.331Z,0.1
2018-12-25T07:28:46.114Z,0.1
2018-12-25T07:29:35.884Z,0.1
2018-12-25T07:30:25.806Z,0
2018-12-25T07:31:16.529Z,0
2018-12-25T07:32:06.614Z,0.1
2018-12-25T07:32:56.728Z,0.1
2018-12-25T07:33:46.286Z,0
2018-12-25T07:34:36.293Z,0.1
2018-12-25T07:35:26.925Z,0
2018-12-25T07:36:16.986Z,0
2018-12-25T07:37:06.198Z,0.1
2018-12-25T07:37:56.539Z,0.1
2018-12-25T07:38:46.504Z,0.1
2018-12-25T07:39:36.768Z,0.1
2018-12-25T07:40:26.688Z,0.1
2018-12-25T07:41:17.081Z,0.1
2018-12-25T07:42:07.295Z,0.1
2018-12-25T07:42:57.073Z,0.2
2018-12-25T07:43:47.392Z,0.2
2018-12-25T07:44:37.470Z,0.3
2018-12-25T07:45:27.562Z,0.2
2018-12-25T07:46:16.745Z,0.2
2018-12-25T07:47:07.340Z,0.2
2018-12-25T07:47:57.417Z,0.2
2018-12-25T07:48:47.515Z,0.2
2018-12-25T07:49:37.301Z,0.2
2018-12-25T07:50:28.105Z,0.2
2018-12-25T07:51:23.445Z,0.2
2018-12-25T07:52:07.962Z,0.2
2018-12-25T07:52:58.074Z,0.3
2018-12-25T07:53:48.058Z,0.3
2018-12-25T07:54:38.132Z,0.2
2018-12-25T07:55:27.641Z,0.2
2018-12-25T07:56:17.759Z,0.2
2018-12-25T07:57:08.318Z,0.2
2018-12-25T07:57:58.098Z,0.2
2018-12-25T07:58:47.405Z,0.2
2018-12-25T07:59:37.932Z,0.2
2018-12-25T08:00:27.804Z,0.2
2018-12-25T08:01:18.381Z,0.2
2018-12-25T08:02:08.634Z,0.2
2018-12-25T08:02:58.684Z,0.3
2018-12-25T08:03:48.481Z,0.3
2018-12-25T08:04:38.004Z,0.3
2018-12-25T08:05:28.692Z,0.3
2018-12-25T08:06:18.961Z,0.3
2018-12-25T08:07:08.991Z,0.2
2018-12-25T08:07:58.778Z,0.2
2018-12-25T08:08:49.203Z,0.3
2018-12-25T08:09:39.169Z,0.3
2018-12-25T08:10:29.219Z,0.3
2018-12-25T08:11:18.994Z,0.3
2018-12-25T08:12:09.431Z,0.3
2018-12-25T08:12:59.399Z,0.3
2018-12-25T08:13:49.181Z,0.3
2018-12-25T08:14:39.513Z,0.3
2018-12-25T08:15:29.276Z,0.3
2018-12-25T08:16:19.620Z,0.3
2018-12-25T08:17:09.920Z,0.3
2018-12-25T08:17:59.738Z,0.4
2018-12-25T08:18:49.790Z,0.4
2018-12-25T08:19:39.865Z,0.4
2018-12-25T08:20:29.364Z,0.4
2018-12-25T08:21:19.403Z,0.4
2018-12-25T08:22:09.988Z,0.3
2018-12-25T08:23:05.327Z,0.3
2018-12-25T08:23:49.569Z,0.3
2018-12-25T08:24:40.190Z,0.3
2018-12-25T08:25:30.520Z,0.3
2018-12-25T08:26:20.305Z,0.3
2018-12-25T08:27:10.363Z,0.3
2018-12-25T08:27:59.870Z,0.3
2018-12-25T08:28:49.941Z,0.3
2018-12-25T08:29:40.265Z,0.3
2018-12-25T08:30:29.755Z,0.3
2018-12-25T08:31:20.375Z,0.3
2018-12-25T08:32:10.423Z,0.3
2018-12-25T08:33:00.482Z,0.3
2018-12-25T08:33:50.552Z,0.4
2018-12-25T08:34:40.880Z,0.4
2018-12-25T08:35:30.642Z,0.4
2018-12-25T08:36:21.099Z,0.4
2018-12-25T08:37:11.050Z,0.4
2018-12-25T08:38:00.822Z,0.4
2018-12-25T08:38:51.214Z,0.4
2018-12-25T08:39:40.929Z,0.3
2018-12-25T08:40:31.271Z,0.4
2018-12-25T08:41:21.057Z,0.4
2018-12-25T08:42:11.421Z,0.4
2018-12-25T08:43:00.877Z,0.4
2018-12-25T08:43:51.507Z,0.4
2018-12-25T08:44:41.366Z,0.4
2018-12-25T08:45:31.064Z,0.4
2018-12-25T08:46:21.394Z,0.3
2018-12-25T08:47:13.623Z,0.3
2018-12-25T08:48:01.782Z,0.3
2018-12-25T08:48:51.836Z,0.3
2018-12-25T08:49:41.894Z,0.4
2018-12-25T08:50:31.678Z,0.4
2018-12-25T08:51:21.703Z,0.3
2018-12-25T08:52:11.789Z,0.4
2018-12-25T08:53:02.114Z,0.4
2018-12-25T08:53:52.184Z,0.5
2018-12-25T08:54:41.958Z,0.6
2018-12-25T08:55:32.123Z,0.4
2018-12-25T08:56:21.806Z,0.3
2018-12-25T08:57:11.577Z,0.3
2018-12-25T08:58:02.486Z,0.3
2018-12-25T08:58:52.556Z,0.4
2018-12-25T08:59:42.563Z,0.4
2018-12-25T09:00:32.368Z,0.3
2018-12-25T09:16:22.557Z,0.2
2018-12-25T09:17:12.905Z,0.1
2018-12-25T09:18:02.727Z,0.1
2018-12-25T09:18:52.739Z,0.1
2018-12-25T09:19:43.074Z,0.1
2018-12-25T09:20:32.850Z,0.1
2018-12-25T09:21:24.044Z,0.1
2018-12-25T09:22:12.798Z,0
2018-12-25T09:23:03.019Z,0.1
2018-12-25T09:23:53.159Z,0.1
2018-12-25T09:24:43.402Z,0.1
2018-12-25T09:25:32.914Z,0.2
2018-12-25T09:26:23.799Z,0.1
2018-12-25T09:27:13.311Z,0.1
2018-12-25T09:28:03.364Z,0.1
2018-12-25T09:28:53.694Z,0.1
2018-12-25T09:29:43.191Z,0.1
2018-12-25T09:30:33.526Z,0.1
2018-12-25T09:31:24.112Z,0.1
2018-12-25T09:32:13.645Z,0.1
2018-12-25T09:33:03.984Z,0.1
2018-12-25T09:33:53.473Z,0.4
2018-12-25T09:34:43.808Z,0.6
2018-12-25T09:35:33.914Z,0.6
2018-12-25T09:36:24.173Z,0.7
2018-12-25T09:37:14.258Z,0.8
2018-12-25T09:38:04.066Z,0.9
2018-12-25T09:38:54.116Z,1.2
2018-12-25T09:39:44.416Z,1.4
2018-12-25T09:40:34.486Z,1.4
2018-12-25T09:41:24.272Z,1.2
2018-12-25T09:42:13.781Z,0.9
2018-12-25T09:43:03.856Z,0.9
2018-12-25T09:43:54.716Z,0.8
2018-12-25T09:44:44.773Z,0.9
2018-12-25T09:45:34.283Z,1
2018-12-25T09:46:24.725Z,1
2018-12-25T09:47:14.650Z,0.8
2018-12-25T09:48:13.076Z,1
2018-12-25T09:48:54.488Z,0.9
2018-12-25T09:49:44.830Z,1.1
2018-12-25T09:50:35.163Z,1.3
2018-12-25T09:51:24.933Z,1.4
2018-12-25T09:52:15.268Z,1.4
2018-12-25T09:53:05.067Z,1.6
2018-12-25T09:53:55.113Z,1.6
2018-12-25T09:54:45.171Z,1.8
2018-12-25T09:55:35.218Z,1.8
2018-12-25T09:56:24.997Z,1.7
2018-12-25T09:57:15.337Z,1.7
2018-12-25T09:58:05.115Z,1.9
2018-12-25T09:58:55.732Z,1.8
2018-12-25T09:59:45.529Z,1.9
2018-12-25T10:00:35.856Z,2
2018-12-25T10:01:25.910Z,1.9
2018-12-25T10:02:15.399Z,2.1
2018-12-25T10:03:06.017Z,2.4
2018-12-25T10:03:55.792Z,2.7
2018-12-25T10:04:45.569Z,2.6
2018-12-25T10:05:36.187Z,2.4
2018-12-25T10:06:26.329Z,2.3
2018-12-25T10:07:15.821Z,2.4
2018-12-25T10:08:06.364Z,2.4
2018-12-25T10:08:56.131Z,1.9
2018-12-25T10:09:46.101Z,1.8
2018-12-25T10:10:36.044Z,1.8
2018-12-25T10:11:26.191Z,1.7
2018-12-25T10:12:16.718Z,1.8
2018-12-25T10:13:05.958Z,2
2018-12-25T10:13:56.312Z,2.3
2018-12-25T10:14:46.838Z,2.1
2018-12-25T10:15:36.413Z,1.9
2018-12-25T10:16:26.681Z,1.9
2018-12-25T10:17:17.258Z,1.8
2018-12-25T10:18:06.395Z,1.6
2018-12-25T10:18:57.113Z,1.6
2018-12-25T10:19:46.685Z,1.7
2018-12-25T10:20:37.224Z,1.6
2018-12-25T10:21:27.306Z,1.4
2018-12-25T10:22:16.831Z,1.4
2018-12-25T10:23:06.619Z,1.4
2018-12-25T10:23:56.953Z,1.3
2018-12-25T10:24:47.583Z,1.4
2018-12-25T10:25:37.066Z,1.3
2018-12-25T10:26:27.151Z,1.2
2018-12-25T10:27:16.904Z,1.1
2018-12-25T10:28:07.253Z,1.1
2018-12-25T10:28:57.785Z,1.1
2018-12-25T10:29:47.079Z,1
2018-12-25T10:30:37.612Z,0.9
2018-12-25T10:31:27.191Z,1.1
2018-12-25T10:32:17.729Z,1.1
2018-12-25T10:33:07.293Z,1.1
2018-12-25T10:33:58.117Z,1.2
2018-12-25T10:34:48.167Z,1.3
2018-12-25T10:35:37.395Z,1.3
2018-12-25T10:36:28.280Z,1.2
2018-12-25T10:37:17.600Z,1.1
2018-12-25T10:38:08.396Z,1.1
2018-12-25T10:38:57.974Z,1.2
2018-12-25T10:39:48.336Z,1.3
2018-12-25T10:40:37.735Z,1.1
2018-12-25T10:41:28.349Z,1.1
2018-12-25T10:42:18.661Z,1
2018-12-25T10:43:08.512Z,1.1
2018-12-25T10:43:58.815Z,1.1
2018-12-25T10:44:49.096Z,1
2018-12-25T10:45:38.344Z,1
2018-12-25T10:46:28.417Z,1.1
2018-12-25T10:47:18.262Z,1.1
2018-12-25T10:48:08.338Z,1
2018-12-25T10:48:58.866Z,0.9
2018-12-25T10:49:48.641Z,1.1
2018-12-25T10:50:39.249Z,1.1
2018-12-25T10:51:29.031Z,1
2018-12-25T10:52:18.605Z,0.9
2018-12-25T10:53:08.868Z,0.9
2018-12-25T10:53:59.458Z,0.9
2018-12-25T10:54:49.348Z,0.9
2018-12-25T10:55:39.578Z,0.9
2018-12-25T10:56:29.373Z,0.8
2018-12-25T10:57:19.673Z,0.8
2018-12-25T10:58:09.486Z,0.8
2018-12-25T10:58:58.791Z,0.8
2018-12-25T10:59:49.871Z,0.8
2018-12-25T11:00:39.378Z,0.7
2018-12-25T11:01:29.708Z,0.8
2018-12-25T11:02:20.043Z,0.8
2018-12-25T11:03:10.098Z,0.9
2018-12-25T11:04:00.122Z,0.9
2018-12-25T11:04:49.935Z,0.9
2018-12-25T11:05:40.269Z,0.8
2018-12-25T11:06:30.322Z,0.8
2018-12-25T11:07:20.483Z,0.7
2018-12-25T11:08:10.160Z,0.7
2018-12-25T11:09:00.727Z,0.8
2018-12-25T11:09:50.900Z,0.8
2018-12-25T11:10:40.066Z,0.7
2018-12-25T11:11:30.757Z,0.7
2018-12-25T11:12:20.715Z,0.7
2018-12-25T11:13:10.502Z,0.7
2018-12-25T11:14:00.555Z,0.8
2018-12-25T11:14:50.862Z,0.8
2018-12-25T11:15:41.192Z,0.8
2018-12-25T11:16:31.002Z,0.8
2018-12-25T11:17:20.771Z,0.8
2018-12-25T11:18:11.122Z,0.8
2018-12-25T11:19:01.179Z,0.8
2018-12-25T11:19:50.679Z,1.1
2018-12-25T11:20:41.029Z,1.2
2018-12-25T11:21:31.349Z,1.3
2018-12-25T11:22:22.252Z,1.3
2018-12-25T11:23:11.764Z,1.2
2018-12-25T11:24:01.527Z,1.2
2018-12-25T11:24:51.299Z,1.1
2018-12-25T11:25:41.607Z,0.9
2018-12-25T11:26:31.695Z,0.9
2018-12-25T11:27:21.459Z,0.9
2018-12-25T11:28:11.818Z,1
2018-12-25T11:29:01.579Z,1
2018-12-25T11:29:51.931Z,0.9
2018-12-25T11:30:42.219Z,0.9
2018-12-25T11:31:32.046Z,0.9
2018-12-25T11:32:22.091Z,1
2018-12-25T11:33:12.146Z,1.1
2018-12-25T11:34:04.129Z,0.9
2018-12-25T11:34:52.064Z,0.9
2018-12-25T11:35:42.061Z,0.9
2018-12-25T11:36:31.838Z,0.7
2018-12-25T11:37:21.681Z,0.6
2018-12-25T11:38:11.929Z,0.6
2018-12-25T11:39:02.558Z,0.6
2018-12-25T11:39:52.721Z,0.6
2018-12-25T11:40:42.668Z,0.6
2018-12-25T11:41:32.486Z,0.6
2018-12-25T11:42:22.503Z,0.6
2018-12-25T11:43:12.658Z,0.5
2018-12-25T11:44:03.148Z,0.5
2018-12-25T11:44:52.672Z,0.6
2018-12-25T11:45:42.453Z,0.6
2018-12-25T11:46:33.090Z,0.5
2018-12-25T11:47:23.133Z,0.4
2018-12-25T11:48:13.185Z,0.4
2018-12-25T11:49:02.971Z,0.3
2018-12-25T11:49:53.030Z,0.3
2018-12-25T11:50:43.647Z,0.2
2018-12-25T11:51:33.178Z,0.2
2018-12-25T11:52:31.250Z,0.2
2018-12-25T11:53:13.605Z,0.2
2018-12-25T11:54:03.307Z,0.1
2018-12-25T11:54:53.375Z,0.1
2018-12-25T11:55:43.775Z,0.1
2018-12-25T11:56:33.472Z,0.2
2018-12-25T11:57:23.812Z,0.2
2018-12-25T11:58:14.489Z,0.2
2018-12-25T11:59:03.967Z,0.2
2018-12-25T11:59:53.989Z,0.2
2018-12-25T12:00:43.609Z,0.3
2018-12-25T12:01:34.199Z,0.2
2018-12-25T12:02:24.150Z,0.2
2018-12-25T12:03:13.928Z,0.3
2018-12-25T12:04:04.283Z,0.1
2018-12-25T12:04:54.329Z,0.1
2018-12-25T12:05:44.115Z,0.1
2018-12-25T12:06:34.686Z,0.1
2018-12-25T12:07:24.496Z,0.1
2018-12-25T12:08:14.264Z,0.1
2018-12-25T12:09:04.341Z,0.1
2018-12-25T12:09:54.664Z,0.1
2018-12-25T12:10:44.166Z,0.1
2018-12-25T12:11:34.790Z,0.1
2018-12-25T12:12:24.546Z,0.1
2018-12-25T12:13:14.338Z,0.1
2018-12-25T12:14:04.541Z,0.1
2018-12-25T12:14:55.004Z,0.1